Time;durP1;ratioP1;P1;durP2;ratioP2;P2;SDS_P1;SDS_P2;PMS_P1;PMS_P2;Temp;Humidity;BMP_temperature;BMP_pressure;BME280_temperature;BME280_humidity;BME280_pressure;Samples;Min_cycle;Max_cycle;Signal;HPM_P1;HPM_P2
2023/11/05 00:00:39;;;;;;;0.30;0.30;;;9.00;99.90;;;;;;4992229;28;20212;-64
2023/11/05 00:03:05;;;;;;;0.30;0.30;;;9.10;99.90;;;;;;4992333;28;20256;-64
2023/11/05 00:05:30;;;;;;;0.57;0.57;;;9.00;99.90;;;;;;4992483;28;20176;-64
2023/11/05 00:07:57;;;;;;;0.30;0.30;;;9.10;99.90;;;;;;4991918;28;20551;-64
2023/11/05 00:10:23;;;;;;;0.30;0.30;;;9.10;99.90;;;;;;4992370;28;20199;-64
2023/11/05 00:12:48;;;;;;;0.40;0.40;;;9.20;99.90;;;;;;4992200;28;20199;-64
2023/11/05 00:15:14;;;;;;;0.40;0.40;;;9.30;99.90;;;;;;4992415;28;20180;-64
2023/11/05 00:17:40;;;;;;;0.30;0.30;;;9.30;99.90;;;;;;4992268;28;20172;-64
2023/11/05 00:20:07;;;;;;;0.30;0.30;;;9.30;99.90;;;;;;4992060;28;20211;-64
2023/11/05 00:22:33;;;;;;;0.40;0.40;;;9.30;99.90;;;;;;4991912;28;20205;-64
2023/11/05 00:24:59;;;;;;;0.50;0.50;;;9.30;99.90;;;;;;4992461;28;20183;-64
2023/11/05 00:27:24;;;;;;;0.30;0.30;;;9.30;99.90;;;;;;4992270;28;20248;-64
2023/11/05 00:29:50;;;;;;;0.30;0.30;;;9.20;99.90;;;;;;4992182;28;20172;-64
2023/11/05 00:32:16;;;;;;;0.30;0.30;;;9.10;99.90;;;;;;4992285;28;20242;-64
2023/11/05 00:34:41;;;;;;;0.40;0.40;;;9.10;99.90;;;;;;4992341;28;20173;-64
2023/11/05 00:37:07;;;;;;;0.30;0.30;;;9.00;99.90;;;;;;4992221;28;20259;-64
2023/11/05 00:39:33;;;;;;;0.60;0.60;;;9.00;99.90;;;;;;4991997;28;20342;-64
2023/11/05 00:41:59;;;;;;;0.40;0.40;;;9.00;99.90;;;;;;4993546;28;20267;-64
2023/11/05 00:44:25;;;;;;;0.30;0.30;;;9.00;99.90;;;;;;4996266;28;20411;-64
2023/11/05 00:46:51;;;;;;;0.30;0.30;;;9.00;99.90;;;;;;4995717;28;20176;-64
2023/11/05 00:49:16;;;;;;;0.30;0.30;;;9.00;99.90;;;;;;4995745;28;20438;-64
2023/11/05 00:51:42;;;;;;;0.30;0.30;;;8.90;99.90;;;;;;5016694;23;20236;-60
2023/11/05 00:54:09;;;;;;;0.40;0.40;;;9.00;99.90;;;;;;4995468;28;20200;-59
2023/11/05 00:56:34;;;;;;;0.40;0.40;;;9.10;99.90;;;;;;4995345;28;20176;-59
2023/11/05 00:59:02;;;;;;;0.40;0.40;;;9.10;99.90;;;;;;4995098;28;20554;-59
2023/11/05 01:01:27;;;;;;;0.30;0.30;;;9.00;99.90;;;;;;4995310;28;20419;-59
2023/11/05 01:03:53;;;;;;;0.50;0.50;;;9.00;99.90;;;;;;4995004;28;20646;-60
2023/11/05 01:06:19;;;;;;;0.40;0.40;;;9.00;99.90;;;;;;4995326;28;20661;-59
2023/11/05 01:08:45;;;;;;;0.30;0.30;;;9.00;99.90;;;;;;4995012;28;20225;-59
2023/11/05 01:11:11;;;;;;;0.50;0.50;;;9.10;99.90;;;;;;4995261;28;20178;-59
2023/11/05 01:13:37;;;;;;;0.30;0.30;;;9.10;99.90;;;;;;4995154;28;20609;-59
2023/11/05 01:16:02;;;;;;;0.30;0.30;;;9.00;99.90;;;;;;4994856;28;20461;-59
2023/11/05 01:18:28;;;;;;;0.40;0.40;;;9.10;99.90;;;;;;4994563;28;20271;-60
2023/11/05 01:20:56;;;;;;;1.80;0.67;;;9.20;99.90;;;;;;4994753;28;20538;-59
2023/11/05 01:23:22;;;;;;;0.50;0.50;;;9.20;99.90;;;;;;4995015;28;20278;-60
2023/11/05 01:25:47;;;;;;;0.30;0.30;;;9.30;99.90;;;;;;4995010;28;20251;-59
2023/11/05 01:28:13;;;;;;;2.33;2.23;;;9.30;99.90;;;;;;4994832;28;20837;-59
2023/11/05 01:30:39;;;;;;;0.30;0.30;;;9.30;99.90;;;;;;4994749;28;20574;-59
2023/11/05 01:33:05;;;;;;;0.30;0.30;;;9.30;99.90;;;;;;4994628;28;20199;-60
2023/11/05 01:35:30;;;;;;;5.70;1.17;;;9.10;99.90;;;;;;4986894;28;20428;-59
2023/11/05 01:37:56;;;;;;;0.50;0.47;;;9.10;99.90;;;;;;4982708;28;20176;-59
2023/11/05 01:40:21;;;;;;;0.40;0.40;;;9.10;99.90;;;;;;4984977;28;20709;-59
2023/11/05 01:42:51;;;;;;;0.40;0.40;;;9.00;99.90;;;;;;4983238;28;20239;-59
2023/11/05 01:45:17;;;;;;;0.60;0.60;;;9.00;99.90;;;;;;4984486;28;20408;-60
2023/11/05 01:47:43;;;;;;;1.50;1.40;;;9.10;99.90;;;;;;4977357;28;20188;-60
2023/11/05 01:50:09;;;;;;;0.30;0.30;;;9.10;99.90;;;;;;4974770;28;20211;-59
2023/11/05 01:52:36;;;;;;;0.30;0.30;;;9.10;99.90;;;;;;4974606;28;20315;-59
2023/11/05 01:55:03;;;;;;;0.40;0.40;;;9.00;99.90;;;;;;4974755;28;20215;-59
2023/11/05 01:57:30;;;;;;;0.30;0.30;;;9.00;99.90;;;;;;4974620;28;20185;-59
2023/11/05 01:59:56;;;;;;;0.30;0.30;;;9.10;99.90;;;;;;4982974;28;20255;-59
2023/11/05 02:02:23;;;;;;;0.30;0.30;;;9.10;99.90;;;;;;4981010;28;20236;-59
2023/11/05 02:04:49;;;;;;;0.57;0.52;;;9.20;99.90;;;;;;4982385;28;20536;-59
2023/11/05 02:07:14;;;;;;;0.40;0.40;;;9.10;99.90;;;;;;4986903;28;20192;-59
2023/11/05 02:09:41;;;;;;;0.47;0.47;;;9.10;99.90;;;;;;4978405;28;20420;-59
2023/11/05 02:12:08;;;;;;;0.65;0.43;;;9.00;99.90;;;;;;4974565;28;20201;-60
2023/11/05 02:14:33;;;;;;;0.30;0.30;;;9.00;99.90;;;;;;4974472;28;20485;-59
2023/11/05 02:16:59;;;;;;;1.47;0.83;;;9.00;99.90;;;;;;4974268;28;20223;-60
2023/11/05 02:19:25;;;;;;;0.63;0.50;;;9.10;99.90;;;;;;4974424;28;20211;-59
2023/11/05 02:21:56;;;;;;;0.40;0.40;;;9.00;99.90;;;;;;4974463;28;20288;-59
2023/11/05 02:24:25;;;;;;;0.30;0.30;;;8.90;99.90;;;;;;4974338;28;20669;-59
2023/11/05 02:26:58;;;;;;;0.30;0.30;;;8.80;99.90;;;;;;4974242;28;20184;-59
2023/11/05 02:29:24;;;;;;;0.40;0.40;;;8.80;99.90;;;;;;4973941;28;20177;-59
2023/11/05 02:31:50;;;;;;;0.40;0.40;;;8.80;99.90;;;;;;4974337;28;20216;-60
2023/11/05 02:34:16;;;;;;;0.30;0.30;;;8.80;99.90;;;;;;4974381;28;20188;-59
2023/11/05 02:36:41;;;;;;;0.30;0.30;;;8.80;99.90;;;;;;4973954;28;20177;-59
2023/11/05 02:39:07;;;;;;;0.50;0.50;;;8.90;99.90;;;;;;4973949;28;20527;-59
2023/11/05 02:41:34;;;;;;;0.40;0.40;;;8.90;99.90;;;;;;4973988;28;20194;-59
2023/11/05 02:43:59;;;;;;;1.95;0.60;;;9.00;99.90;;;;;;4973860;28;20412;-59
2023/11/05 02:46:25;;;;;;;0.40;0.40;;;9.00;99.90;;;;;;4973905;28;20199;-59
2023/11/05 02:48:51;;;;;;;0.30;0.30;;;9.00;99.90;;;;;;4973631;28;20702;-59
2023/11/05 02:51:17;;;;;;;0.30;0.30;;;8.90;99.90;;;;;;4973604;28;20223;-59
2023/11/05 02:53:42;;;;;;;0.30;0.30;;;8.90;99.90;;;;;;4973862;28;20447;-59
2023/11/05 02:56:08;;;;;;;0.30;0.30;;;8.90;99.90;;;;;;4973685;28;20181;-59
2023/11/05 02:58:34;;;;;;;0.32;0.32;;;8.70;99.90;;;;;;4973317;28;20393;-59
2023/11/05 03:01:00;;;;;;;0.30;0.30;;;8.70;99.90;;;;;;4973783;28;20618;-59
2023/11/05 03:03:27;;;;;;;0.30;0.30;;;8.70;99.90;;;;;;4973550;28;20231;-59
2023/11/05 03:05:52;;;;;;;0.43;0.43;;;8.70;99.90;;;;;;4975280;28;20184;-59
2023/11/05 03:08:18;;;;;;;0.33;0.33;;;8.70;99.90;;;;;;4981231;28;20251;-59
2023/11/05 03:10:44;;;;;;;0.30;0.30;;;8.80;99.90;;;;;;4981470;28;20484;-59
2023/11/05 03:13:11;;;;;;;1.70;1.17;;;8.80;99.90;;;;;;4982081;28;20188;-59
2023/11/05 03:15:37;;;;;;;3.10;0.65;;;8.70;99.90;;;;;;4983633;28;20528;-60
2023/11/05 03:18:02;;;;;;;0.30;0.30;;;8.70;99.90;;;;;;4978636;28;20172;-59
2023/11/05 03:20:29;;;;;;;0.30;0.30;;;8.70;99.90;;;;;;4987073;28;20226;-59
2023/11/05 03:22:54;;;;;;;0.30;0.30;;;8.70;99.90;;;;;;4982590;28;20204;-59
2023/11/05 03:25:20;;;;;;;0.30;0.30;;;8.80;99.90;;;;;;4999578;28;20184;-59
2023/11/05 03:27:46;;;;;;;0.30;0.30;;;8.80;99.90;;;;;;4984129;28;20187;-59
2023/11/05 03:30:12;;;;;;;0.30;0.30;;;8.80;99.90;;;;;;4983208;28;20645;-59
2023/11/05 03:32:38;;;;;;;0.50;0.50;;;8.90;99.90;;;;;;4983406;28;20436;-59
2023/11/05 03:35:08;;;;;;;0.40;0.40;;;8.90;99.90;;;;;;4982597;28;20195;-59
2023/11/05 03:37:35;;;;;;;0.38;0.38;;;8.80;99.90;;;;;;4984407;28;20654;-59
2023/11/05 03:40:00;;;;;;;0.60;0.60;;;8.70;99.90;;;;;;4989630;28;20204;-60
2023/11/05 03:42:26;;;;;;;0.30;0.30;;;8.80;99.90;;;;;;4983187;28;20568;-59
2023/11/05 03:44:52;;;;;;;0.40;0.40;;;8.80;99.90;;;;;;4983258;28;20176;-59
2023/11/05 03:47:17;;;;;;;0.40;0.40;;;8.80;99.90;;;;;;4987002;28;20180;-59
2023/11/05 03:49:43;;;;;;;0.60;0.50;;;8.90;99.90;;;;;;4990816;28;20183;-59
2023/11/05 03:52:09;;;;;;;0.30;0.30;;;8.90;99.90;;;;;;4992164;28;20221;-59
2023/11/05 03:54:35;;;;;;;0.40;0.40;;;8.90;99.90;;;;;;4992351;28;20179;-59
2023/11/05 03:57:01;;;;;;;0.30;0.30;;;9.00;99.90;;;;;;4992047;28;20251;-59
2023/11/05 03:59:27;;;;;;;0.30;0.30;;;9.10;99.90;;;;;;4992219;28;20248;-58
2023/11/05 04:01:53;;;;;;;0.30;0.30;;;9.10;99.90;;;;;;4992300;28;20286;-59
2023/11/05 04:04:18;;;;;;;0.30;0.30;;;9.10;99.90;;;;;;4992358;28;20235;-59
2023/11/05 04:06:44;;;;;;;0.30;0.30;;;9.20;99.90;;;;;;4992265;28;20520;-59
2023/11/05 04:09:10;;;;;;;1.27;0.50;;;9.30;99.90;;;;;;4992102;28;20180;-59
2023/11/05 04:11:36;;;;;;;0.30;0.30;;;9.40;99.90;;;;;;4991965;28;20666;-59
2023/11/05 04:14:02;;;;;;;0.30;0.30;;;9.50;99.90;;;;;;4992130;28;20404;-59
2023/11/05 04:16:28;;;;;;;0.30;0.30;;;9.40;99.60;;;;;;4992552;28;20538;-59
2023/11/05 04:18:53;;;;;;;0.80;0.70;;;9.40;99.90;;;;;;4996008;28;20414;-59
2023/11/05 04:21:19;;;;;;;0.40;0.40;;;9.40;99.90;;;;;;4995937;28;20673;-59
2023/11/05 04:23:45;;;;;;;0.37;0.37;;;9.50;99.90;;;;;;4996082;28;20179;-59
2023/11/05 04:26:12;;;;;;;0.40;0.40;;;9.40;99.90;;;;;;4995797;28;20200;-59
2023/11/05 04:28:38;;;;;;;0.55;0.55;;;9.40;99.90;;;;;;4995663;28;20171;-59
2023/11/05 04:31:03;;;;;;;0.30;0.30;;;9.40;99.90;;;;;;4995929;28;20180;-59
2023/11/05 04:33:29;;;;;;;0.30;0.30;;;9.40;99.90;;;;;;4995736;28;20808;-59
2023/11/05 04:35:55;;;;;;;0.50;0.50;;;9.40;99.90;;;;;;4995723;28;20415;-59
2023/11/05 04:38:20;;;;;;;0.30;0.30;;;9.40;99.90;;;;;;4995472;28;20180;-60
2023/11/05 04:40:46;;;;;;;0.30;0.30;;;9.40;99.90;;;;;;4995478;28;20283;-59
2023/11/05 04:43:12;;;;;;;0.30;0.30;;;9.40;99.90;;;;;;4995511;28;20192;-59
2023/11/05 04:45:38;;;;;;;0.40;0.40;;;9.50;99.90;;;;;;4995557;28;20267;-59
2023/11/05 04:48:04;;;;;;;0.57;0.57;;;9.40;99.90;;;;;;4995364;28;20246;-58
2023/11/05 04:50:29;;;;;;;0.30;0.30;;;9.40;99.90;;;;;;4995602;28;20176;-59
2023/11/05 04:52:55;;;;;;;0.30;0.30;;;9.40;99.90;;;;;;4995290;28;20204;-59
2023/11/05 04:55:21;;;;;;;1.23;1.13;;;9.40;99.90;;;;;;4995323;28;20259;-59
2023/11/05 04:57:46;;;;;;;1.33;0.40;;;9.40;99.90;;;;;;4995460;28;20184;-59
2023/11/05 05:00:13;;;;;;;0.67;0.67;;;9.40;99.90;;;;;;4995068;28;20328;-59
2023/11/05 05:02:39;;;;;;;0.30;0.30;;;9.50;99.90;;;;;;4995279;28;20274;-59
2023/11/05 05:05:05;;;;;;;0.40;0.40;;;9.40;99.90;;;;;;4991095;28;20227;-59
2023/11/05 05:07:30;;;;;;;0.40;0.40;;;9.30;99.90;;;;;;4975668;28;20173;-59
2023/11/05 05:09:56;;;;;;;0.40;0.40;;;9.20;99.90;;;;;;4975320;28;20416;-59
2023/11/05 05:12:23;;;;;;;0.30;0.30;;;9.10;99.90;;;;;;4975561;28;20197;-59
2023/11/05 05:14:48;;;;;;;0.40;0.40;;;9.20;99.90;;;;;;4975677;28;20184;-59
2023/11/05 05:17:15;;;;;;;0.30;0.30;;;9.20;99.90;;;;;;4975485;28;20646;-58
2023/11/05 05:19:41;;;;;;;0.30;0.30;;;9.20;99.90;;;;;;4975294;28;20987;-59
2023/11/05 05:22:07;;;;;;;0.30;0.30;;;9.10;99.90;;;;;;4975455;28;20205;-59
2023/11/05 05:24:33;;;;;;;0.30;0.30;;;9.10;99.90;;;;;;4975322;28;20180;-59
2023/11/05 05:26:59;;;;;;;0.30;0.30;;;9.10;99.90;;;;;;4975004;28;20256;-59
2023/11/05 05:29:25;;;;;;;0.30;0.30;;;9.00;99.90;;;;;;4974919;28;20239;-59
2023/11/05 05:31:51;;;;;;;0.30;0.30;;;9.00;99.90;;;;;;4975298;28;20193;-59
2023/11/05 05:34:16;;;;;;;0.30;0.30;;;9.00;99.90;;;;;;4975164;28;20173;-59
2023/11/05 05:36:42;;;;;;;0.37;0.37;;;9.10;99.90;;;;;;4975163;28;20187;-59
2023/11/05 05:39:07;;;;;;;0.30;0.30;;;9.10;99.90;;;;;;4974860;28;20173;-59
2023/11/05 05:41:33;;;;;;;0.30;0.30;;;9.10;99.90;;;;;;4975264;28;20193;-59
2023/11/05 05:43:59;;;;;;;0.30;0.30;;;9.10;99.90;;;;;;4975142;28;20173;-59
2023/11/05 05:46:25;;;;;;;0.30;0.30;;;9.00;99.90;;;;;;4975265;28;20599;-59
2023/11/05 05:48:51;;;;;;;0.30;0.30;;;9.00;99.90;;;;;;4974725;28;20634;-59
2023/11/05 05:51:17;;;;;;;9.00;0.70;;;9.10;99.90;;;;;;4974795;28;20188;-59
2023/11/05 05:53:43;;;;;;;0.30;0.30;;;9.10;99.90;;;;;;4974886;28;20228;-59
2023/11/05 05:56:09;;;;;;;0.30;0.30;;;9.00;99.90;;;;;;4974843;28;20645;-59
2023/11/05 05:58:35;;;;;;;0.30;0.30;;;9.00;99.90;;;;;;4974726;28;20428;-59
2023/11/05 06:01:01;;;;;;;0.30;0.30;;;9.00;99.90;;;;;;4974736;28;20209;-59
2023/11/05 06:03:27;;;;;;;0.30;0.30;;;9.00;99.90;;;;;;4974662;28;20638;-59
2023/11/05 06:05:52;;;;;;;0.63;0.50;;;9.10;99.90;;;;;;4984630;28;20322;-59
2023/11/05 06:08:18;;;;;;;0.30;0.30;;;9.10;99.90;;;;;;5013317;28;20268;-59
2023/11/05 06:10:44;;;;;;;0.93;0.53;;;9.00;99.90;;;;;;5013844;28;20175;-59
2023/11/05 06:13:09;;;;;;;0.30;0.30;;;9.10;99.90;;;;;;5013535;28;20198;-59
2023/11/05 06:15:35;;;;;;;0.30;0.30;;;9.00;99.90;;;;;;5013394;28;20611;-59
2023/11/05 06:18:02;;;;;;;0.30;0.30;;;8.90;99.90;;;;;;5013153;28;20266;-59
2023/11/05 06:20:27;;;;;;;0.40;0.40;;;8.80;99.90;;;;;;5013334;28;20203;-59
2023/11/05 06:22:54;;;;;;;0.30;0.30;;;8.70;99.90;;;;;;5013219;28;20191;-59
2023/11/05 06:25:20;;;;;;;0.30;0.30;;;8.80;99.90;;;;;;5013438;28;20182;-59
2023/11/05 06:27:45;;;;;;;0.40;0.30;;;8.80;99.90;;;;;;5013059;28;20172;-59
2023/11/05 06:30:12;;;;;;;0.30;0.30;;;8.80;99.90;;;;;;5012937;28;20511;-58
2023/11/05 06:32:40;;;;;;;0.30;0.30;;;8.60;99.90;;;;;;5013038;28;20202;-59
2023/11/05 06:35:07;;;;;;;0.30;0.30;;;8.50;99.90;;;;;;5013031;28;20180;-59
2023/11/05 06:37:33;;;;;;;0.40;0.40;;;8.50;99.90;;;;;;5012767;28;20183;-59
2023/11/05 06:39:59;;;;;;;0.30;0.30;;;8.40;99.90;;;;;;5011884;28;20210;-59
2023/11/05 06:42:25;;;;;;;0.30;0.30;;;8.30;99.90;;;;;;5012852;28;20187;-59
2023/11/05 06:44:51;;;;;;;0.30;0.30;;;8.20;99.90;;;;;;5012841;28;20175;-59
2023/11/05 06:47:17;;;;;;;13.25;1.52;;;8.20;99.90;;;;;;5012630;28;20248;-59
2023/11/05 06:49:42;;;;;;;0.30;0.30;;;8.00;99.90;;;;;;5012540;28;20690;-59
2023/11/05 06:52:08;;;;;;;0.30;0.30;;;7.90;99.90;;;;;;5061460;23;20709;-64
2023/11/05 06:54:34;;;;;;;0.30;0.30;;;8.00;99.90;;;;;;4992944;28;20212;-64
2023/11/05 06:57:03;;;;;;;0.30;0.30;;;8.10;99.90;;;;;;4992948;28;20190;-64
2023/11/05 06:59:29;;;;;;;0.30;0.30;;;8.00;99.90;;;;;;4992835;28;20562;-64
2023/11/05 07:01:54;;;;;;;0.30;0.30;;;8.00;99.90;;;;;;4992980;28;20211;-64
2023/11/05 07:04:21;;;;;;;0.30;0.30;;;8.10;99.90;;;;;;4992857;28;20202;-64
2023/11/05 07:06:47;;;;;;;0.30;0.30;;;8.20;99.90;;;;;;4992753;28;20646;-64
2023/11/05 07:09:14;;;;;;;1.05;0.40;;;8.20;99.90;;;;;;4992785;28;20179;-64
2023/11/05 07:11:40;;;;;;;0.30;0.30;;;8.20;99.90;;;;;;4992715;28;20669;-64
2023/11/05 07:14:06;;;;;;;0.30;0.30;;;8.20;99.90;;;;;;4992806;28;20187;-64
2023/11/05 07:16:32;;;;;;;0.30;0.30;;;8.10;99.90;;;;;;4992351;28;20184;-64
2023/11/05 07:18:58;;;;;;;0.30;0.30;;;8.00;99.90;;;;;;4992476;28;20679;-64
2023/11/05 07:21:23;;;;;;;0.30;0.30;;;8.00;99.90;;;;;;4992479;28;20459;-64
2023/11/05 07:23:49;;;;;;;0.30;0.30;;;8.00;99.90;;;;;;4992486;28;20960;-64
2023/11/05 07:26:15;;;;;;;0.30;0.30;;;8.00;99.90;;;;;;4992735;28;20176;-64
2023/11/05 07:28:42;;;;;;;1.25;0.40;;;8.10;99.90;;;;;;4992422;28;20211;-64
2023/11/05 07:31:13;;;;;;;0.30;0.30;;;8.10;99.90;;;;;;4992555;28;20188;-64
2023/11/05 07:33:38;;;;;;;0.30;0.30;;;8.10;99.90;;;;;;4992316;28;20201;-64
2023/11/05 07:36:04;;;;;;;0.40;0.40;;;8.20;99.90;;;;;;4992290;28;20179;-64
2023/11/05 07:38:30;;;;;;;0.30;0.30;;;8.10;99.90;;;;;;4992271;28;20271;-64
2023/11/05 07:40:56;;;;;;;0.30;0.30;;;8.00;99.90;;;;;;4992258;28;20462;-64
2023/11/05 07:43:22;;;;;;;0.30;0.30;;;8.00;99.90;;;;;;4992670;28;20443;-64
2023/11/05 07:45:47;;;;;;;0.40;0.40;;;8.00;99.90;;;;;;4992581;28;20537;-64
2023/11/05 07:48:13;;;;;;;0.40;0.40;;;7.90;99.90;;;;;;4992024;28;20176;-65
2023/11/05 07:50:39;;;;;;;2.53;0.70;;;7.90;99.90;;;;;;4992029;28;20210;-64
2023/11/05 07:53:04;;;;;;;0.30;0.30;;;7.90;99.90;;;;;;4992348;28;20477;-64
2023/11/05 07:55:30;;;;;;;0.30;0.30;;;7.90;99.90;;;;;;4992365;28;20616;-64
2023/11/05 07:57:56;;;;;;;0.30;0.30;;;7.90;99.90;;;;;;4992079;28;20729;-64
2023/11/05 08:00:22;;;;;;;0.40;0.40;;;7.90;99.90;;;;;;4990834;28;20199;-64
2023/11/05 08:02:48;;;;;;;0.30;0.30;;;7.90;99.90;;;;;;4991393;28;20744;-64
2023/11/05 08:05:14;;;;;;;0.30;0.30;;;7.90;99.90;;;;;;4992066;28;20176;-64
2023/11/05 08:07:40;;;;;;;0.30;0.30;;;8.00;99.90;;;;;;4992189;28;20188;-65
2023/11/05 08:10:07;;;;;;;0.40;0.40;;;8.00;99.90;;;;;;4992560;28;20178;-63
2023/11/05 08:12:34;;;;;;;0.30;0.30;;;8.00;99.90;;;;;;4993013;28;20201;-63
2023/11/05 08:15:00;;;;;;;0.40;0.40;;;7.90;99.90;;;;;;4992743;28;20179;-63
2023/11/05 08:17:26;;;;;;;0.60;0.60;;;8.00;99.90;;;;;;4990308;28;20669;-63
2023/11/05 08:19:51;;;;;;;0.30;0.30;;;8.00;99.90;;;;;;4992852;28;20828;-64
2023/11/05 08:22:18;;;;;;;0.30;0.30;;;8.00;99.90;;;;;;4993662;28;20858;-64
2023/11/05 08:24:44;;;;;;;0.30;0.30;;;8.00;99.90;;;;;;4993686;28;20219;-64
2023/11/05 08:27:11;;;;;;;0.30;0.30;;;8.00;99.90;;;;;;4993349;28;20187;-64
2023/11/05 08:29:39;;;;;;;0.30;0.30;;;8.10;99.90;;;;;;4992651;28;20188;-64
2023/11/05 08:32:06;;;;;;;0.40;0.40;;;8.00;99.90;;;;;;4992894;28;20299;-65
2023/11/05 08:34:33;;;;;;;0.30;0.30;;;8.00;99.90;;;;;;4992368;28;20564;-64
2023/11/05 08:36:59;;;;;;;0.60;0.60;;;8.00;99.90;;;;;;4992650;28;20183;-64
2023/11/05 08:39:27;;;;;;;0.30;0.30;;;7.90;99.90;;;;;;4991930;28;20681;-64
2023/11/05 08:41:53;;;;;;;0.30;0.30;;;7.80;99.90;;;;;;4991733;28;20204;-64
2023/11/05 08:44:19;;;;;;;0.30;0.30;;;7.90;99.90;;;;;;4991898;28;20182;-64
2023/11/05 08:46:45;;;;;;;1.90;0.70;;;7.90;99.90;;;;;;4991816;28;20184;-64
2023/11/05 08:49:11;;;;;;;0.30;0.30;;;8.00;99.90;;;;;;4991947;28;20650;-63
2023/11/05 08:51:36;;;;;;;0.37;0.37;;;8.00;99.90;;;;;;4991667;28;20971;-64
2023/11/05 08:54:02;;;;;;;0.30;0.30;;;8.10;99.90;;;;;;4992060;28;20422;-64
2023/11/05 08:56:28;;;;;;;0.30;0.30;;;7.90;99.90;;;;;;4991824;28;20409;-64
2023/11/05 08:58:54;;;;;;;0.90;0.90;;;7.80;99.90;;;;;;4991761;28;20982;-64
2023/11/05 09:01:20;;;;;;;0.40;0.40;;;7.90;99.90;;;;;;4991620;28;20234;-64
2023/11/05 09:03:46;;;;;;;0.53;0.53;;;7.80;99.90;;;;;;4994866;28;20200;-64
2023/11/05 09:06:13;;;;;;;0.30;0.30;;;7.90;99.90;;;;;;4990858;28;20164;-64
2023/11/05 09:08:39;;;;;;;0.30;0.30;;;7.90;99.90;;;;;;4990735;28;20183;-65
2023/11/05 09:11:07;;;;;;;0.30;0.30;;;7.90;99.90;;;;;;4995645;28;20314;-64
2023/11/05 09:13:33;;;;;;;0.30;0.30;;;8.00;99.90;;;;;;4995330;28;20195;-64
2023/11/05 09:15:58;;;;;;;0.30;0.30;;;7.90;99.90;;;;;;4995509;28;20171;-64
2023/11/05 09:18:24;;;;;;;0.50;0.50;;;7.80;99.90;;;;;;4994898;28;20421;-64
2023/11/05 09:20:50;;;;;;;0.30;0.30;;;7.80;99.90;;;;;;4994929;28;20207;-64
2023/11/05 09:23:16;;;;;;;0.50;0.50;;;7.90;99.90;;;;;;4994847;28;20208;-65
2023/11/05 09:25:42;;;;;;;0.50;0.50;;;7.90;99.90;;;;;;4994848;28;20229;-64
2023/11/05 09:28:08;;;;;;;0.73;0.70;;;7.70;99.90;;;;;;4994455;28;20203;-64
2023/11/05 09:30:34;;;;;;;0.40;0.40;;;7.70;99.90;;;;;;4994797;28;20592;-64
2023/11/05 09:33:00;;;;;;;0.40;0.40;;;7.70;99.90;;;;;;4994623;28;20246;-64
2023/11/05 09:35:26;;;;;;;0.73;0.73;;;7.70;99.90;;;;;;4994730;28;20270;-64
2023/11/05 09:37:52;;;;;;;0.30;0.30;;;7.80;99.90;;;;;;4994629;28;20415;-64
2023/11/05 09:40:19;;;;;;;0.30;0.30;;;7.90;99.90;;;;;;4994238;28;20200;-64
2023/11/05 09:43:01;;;;;;;0.40;0.40;;;7.90;99.90;;;;;;4994466;28;20427;-64
2023/11/05 09:45:37;;;;;;;0.30;0.30;;;8.00;99.90;;;;;;4994648;28;20168;-64
2023/11/05 09:48:06;;;;;;;0.30;0.30;;;8.00;99.90;;;;;;4994151;28;20680;-64
2023/11/05 09:50:40;;;;;;;0.30;0.30;;;8.00;99.90;;;;;;4994286;28;20238;-64
2023/11/05 09:53:14;;;;;;;0.30;0.30;;;8.20;99.90;;;;;;4993957;28;20302;-64
2023/11/05 09:55:41;;;;;;;0.30;0.30;;;8.30;99.90;;;;;;4994523;28;20172;-64
2023/11/05 09:58:08;;;;;;;0.40;0.40;;;8.40;99.90;;;;;;4994073;28;20583;-63
2023/11/05 10:00:34;;;;;;;0.30;0.30;;;8.40;99.90;;;;;;4994231;28;20215;-65
2023/11/05 10:03:08;;;;;;;0.40;0.40;;;8.50;99.90;;;;;;4994127;28;20290;-64
2023/11/05 10:05:38;;;;;;;0.30;0.30;;;8.50;99.90;;;;;;4994275;28;20182;-64
2023/11/05 10:08:06;;;;;;;0.40;0.40;;;8.60;99.90;;;;;;4994007;28;20251;-64
2023/11/05 10:10:33;;;;;;;0.30;0.30;;;8.60;99.90;;;;;;4994507;28;20191;-64
2023/11/05 10:12:58;;;;;;;0.30;0.30;;;8.60;99.90;;;;;;4994258;28;20191;-64
2023/11/05 10:15:24;;;;;;;0.40;0.40;;;8.50;99.90;;;;;;4994061;28;20176;-64
2023/11/05 10:17:53;;;;;;;9.20;4.60;;;8.50;99.90;;;;;;4994100;28;20200;-64
2023/11/05 10:20:23;;;;;;;2.08;1.98;;;8.50;99.90;;;;;;4993776;28;20216;-64
2023/11/05 10:23:06;;;;;;;0.40;0.40;;;8.60;99.90;;;;;;4993957;28;20204;-64
2023/11/05 10:25:34;;;;;;;0.50;0.50;;;8.80;99.90;;;;;;4994654;28;20176;-64
2023/11/05 10:28:00;;;;;;;0.40;0.40;;;8.90;99.90;;;;;;4993763;28;20684;-64
2023/11/05 10:30:26;;;;;;;0.40;0.40;;;8.90;99.90;;;;;;4993958;28;20188;-64
2023/11/05 10:32:53;;;;;;;0.30;0.30;;;9.00;99.90;;;;;;4993766;28;20517;-64
2023/11/05 10:35:21;;;;;;;0.30;0.30;;;9.10;99.90;;;;;;4993950;28;20184;-64
2023/11/05 10:37:51;;;;;;;0.40;0.40;;;9.00;99.90;;;;;;4993973;28;20184;-63
2023/11/05 10:40:17;;;;;;;0.40;0.40;;;9.00;99.90;;;;;;4993426;28;20196;-64
2023/11/05 10:42:49;;;;;;;0.30;0.30;;;9.10;99.90;;;;;;4993490;28;20238;-65
2023/11/05 10:45:16;;;;;;;0.40;0.40;;;9.30;99.90;;;;;;4993249;28;20778;-64
2023/11/05 10:47:42;;;;;;;2.85;0.73;;;9.30;99.90;;;;;;4994220;28;20657;-64
2023/11/05 10:50:19;;;;;;;0.40;0.40;;;9.30;99.90;;;;;;4994779;28;20227;-64
2023/11/05 10:52:46;;;;;;;0.60;0.60;;;9.30;99.90;;;;;;4994951;28;20238;-64
2023/11/05 10:55:12;;;;;;;0.30;0.30;;;9.30;99.90;;;;;;4994943;28;20246;-64
2023/11/05 10:57:42;;;;;;;0.30;0.30;;;9.40;99.90;;;;;;4994942;28;20774;-63
2023/11/05 11:00:28;;;;;;;0.32;0.32;;;9.40;99.90;;;;;;4994609;28;20212;-64
2023/11/05 11:02:55;;;;;;;0.60;0.60;;;9.50;99.90;;;;;;4994143;28;20195;-63
2023/11/05 11:05:41;;;;;;;0.30;0.30;;;9.70;99.90;;;;;;4994727;28;20196;-64
2023/11/05 11:08:15;;;;;;;0.30;0.30;;;9.70;99.90;;;;;;4994575;28;20187;-63
2023/11/05 11:10:42;;;;;;;0.30;0.30;;;9.70;99.90;;;;;;4994657;28;20175;-63
2023/11/05 11:13:13;;;;;;;0.40;0.40;;;9.70;99.90;;;;;;4994871;28;20204;-64
2023/11/05 11:15:39;;;;;;;0.30;0.30;;;9.40;99.90;;;;;;4994374;28;20341;-64
2023/11/05 11:18:14;;;;;;;0.43;0.43;;;9.30;99.90;;;;;;4993790;28;20169;-64
2023/11/05 11:20:42;;;;;;;0.30;0.30;;;9.40;99.90;;;;;;4994232;28;20195;-63
2023/11/05 11:23:14;;;;;;;0.30;0.30;;;9.40;99.90;;;;;;4994378;28;20231;-63
2023/11/05 11:25:57;;;;;;;0.47;0.47;;;9.40;99.90;;;;;;4993785;28;20200;-64
2023/11/05 11:28:23;;;;;;;0.30;0.30;;;9.50;99.90;;;;;;4994137;28;20168;-63
2023/11/05 11:30:50;;;;;;;0.40;0.30;;;9.50;99.90;;;;;;4993503;28;20176;-64
2023/11/05 11:33:19;;;;;;;0.40;0.40;;;9.40;99.90;;;;;;4992554;28;20443;-64
2023/11/05 11:35:45;;;;;;;0.40;0.40;;;9.60;99.90;;;;;;4990968;28;20655;-64
2023/11/05 11:38:11;;;;;;;0.93;0.50;;;9.70;99.90;;;;;;4991964;28;20180;-64
2023/11/05 11:40:36;;;;;;;0.50;0.50;;;9.80;99.90;;;;;;4992478;28;20566;-64
2023/11/05 11:43:05;;;;;;;0.30;0.30;;;9.70;99.90;;;;;;4992555;28;20199;-64
2023/11/05 11:45:30;;;;;;;0.50;0.50;;;9.70;99.90;;;;;;4995257;28;20211;-64
2023/11/05 11:47:56;;;;;;;0.63;0.63;;;9.70;99.90;;;;;;5011896;28;20643;-64
2023/11/05 11:50:22;;;;;;;0.30;0.30;;;9.80;99.90;;;;;;5011672;28;20541;-64
2023/11/05 11:52:50;;;;;;;0.40;0.30;;;9.60;99.90;;;;;;5012222;28;20579;-64
2023/11/05 11:55:16;;;;;;;0.40;0.40;;;9.60;99.90;;;;;;5012020;28;20175;-64
2023/11/05 11:57:42;;;;;;;0.30;0.30;;;9.70;99.90;;;;;;4976447;28;20191;-64
2023/11/05 12:00:11;;;;;;;0.40;0.40;;;9.70;99.90;;;;;;4973520;28;20203;-64
2023/11/05 12:02:38;;;;;;;0.30;0.30;;;9.80;99.90;;;;;;4972885;28;20193;-64
2023/11/05 12:05:05;;;;;;;0.30;0.30;;;9.60;99.90;;;;;;4973020;28;20173;-64
2023/11/05 12:07:47;;;;;;;7.72;0.93;;;9.60;99.90;;;;;;4973168;28;20220;-64
2023/11/05 12:10:17;;;;;;;0.47;0.45;;;9.90;99.90;;;;;;4972824;28;20248;-64
2023/11/05 12:12:50;;;;;;;6.57;0.70;;;10.00;99.90;;;;;;4972764;28;20275;-65
2023/11/05 12:15:19;;;;;;;0.47;0.47;;;10.00;99.90;;;;;;4971331;28;20204;-64
2023/11/05 12:17:48;;;;;;;0.38;0.38;;;10.20;99.90;;;;;;4972083;28;20203;-64
2023/11/05 12:20:15;;;;;;;1.05;0.40;;;10.20;99.90;;;;;;4972192;28;20236;-64
2023/11/05 12:22:43;;;;;;;0.50;0.47;;;10.10;99.90;;;;;;4972810;28;20197;-64
2023/11/05 12:25:09;;;;;;;0.93;0.88;;;10.00;99.90;;;;;;4995023;28;20197;-64
2023/11/05 12:27:35;;;;;;;0.30;0.30;;;9.90;99.90;;;;;;5011432;28;20194;-64
2023/11/05 12:30:08;;;;;;;1.20;0.70;;;9.90;99.90;;;;;;5011503;28;20185;-64
2023/11/05 12:32:37;;;;;;;0.50;0.50;;;10.00;99.90;;;;;;5011616;28;20693;-64
2023/11/05 12:35:03;;;;;;;0.40;0.40;;;10.20;99.90;;;;;;5011606;28;20269;-64
2023/11/05 12:37:29;;;;;;;0.40;0.40;;;10.10;99.90;;;;;;5012078;28;20266;-64
2023/11/05 12:39:55;;;;;;;0.50;0.50;;;10.10;99.90;;;;;;5013807;28;20233;-64
2023/11/05 12:42:21;;;;;;;0.50;0.50;;;9.70;99.90;;;;;;5015551;28;20195;-64
2023/11/05 12:44:46;;;;;;;0.85;0.85;;;9.60;99.90;;;;;;5015354;28;20185;-64
2023/11/05 12:47:12;;;;;;;0.40;0.40;;;9.70;99.90;;;;;;5015236;28;20287;-64
2023/11/05 12:49:38;;;;;;;0.50;0.50;;;9.80;99.90;;;;;;5014883;28;20202;-64
2023/11/05 12:52:04;;;;;;;0.40;0.40;;;9.90;99.90;;;;;;5014762;28;20700;-64
2023/11/05 12:54:30;;;;;;;0.60;0.40;;;9.90;99.90;;;;;;5014993;28;20509;-64